createdAt,value
2022-09-28T00:00:01.822Z,98325.30
2022-09-28T00:05:26.169Z,98323.77
2022-09-28T00:10:27.245Z,98318.65
2022-09-28T00:15:28.542Z,98311.37
2022-09-28T00:20:29.702Z,98304.73
2022-09-28T00:25:31.481Z,98297.35
2022-09-28T00:30:32.740Z,98294.01
2022-09-28T00:35:34.209Z,98291.91
2022-09-28T00:40:42.026Z,98285.59
2022-09-28T00:45:44.423Z,98281.66
2022-09-28T00:50:46.249Z,98274.28
2022-09-28T00:55:53.922Z,98270.72
2022-09-28T01:00:58.446Z,98272.70
2022-09-28T01:06:03.385Z,98273.07
2022-09-28T01:11:04.899Z,98269.18
2022-09-28T01:16:26.735Z,98263.30
2022-09-28T01:21:28.044Z,98255.04
2022-09-28T01:26:29.012Z,98248.45
2022-09-28T01:31:34.414Z,98246.33
2022-09-28T01:36:45.658Z,98244.44
2022-09-28T01:41:50.510Z,98250.17
2022-09-28T01:46:52.943Z,98252.89
2022-09-28T01:52:12.563Z,98244.40
2022-09-28T01:57:20.823Z,98244.33
2022-09-28T02:02:29.405Z,98241.73
2022-09-28T02:07:37.637Z,98241.66
2022-09-28T02:12:45.392Z,98246.95
2022-09-28T02:17:47.036Z,98245.58
2022-09-28T02:22:55.263Z,98246.65
2022-09-28T02:28:04.279Z,98251.76
2022-09-28T02:33:28.050Z,98257.52
2022-09-28T02:38:32.441Z,98255.13
2022-09-28T02:44:04.715Z,98260.70
2022-09-28T02:49:43.695Z,98259.63
2022-09-28T02:55:16.840Z,98253.23
2022-09-28T03:00:21.960Z,98252.79
2022-09-28T03:05:48.454Z,98255.89
2022-09-28T03:11:04.726Z,98252.80
2022-09-28T03:16:12.264Z,98256.48
2022-09-28T03:21:14.984Z,98253.27
2022-09-28T03:26:16.247Z,98253.65
2022-09-28T03:31:17.388Z,98254.19
2022-09-28T03:36:18.965Z,98258.96
2022-09-28T03:41:20.756Z,98254.09
2022-09-28T03:46:21.924Z,98253.69
2022-09-28T03:51:23.141Z,98255.41
2022-09-28T03:56:24.151Z,98253.35
2022-09-28T04:01:25.331Z,98245.00
2022-09-28T04:06:26.854Z,98239.40
2022-09-28T04:11:42.874Z,98240.79
2022-09-28T04:16:51.395Z,98239.71
2022-09-28T04:21:52.443Z,98239.14
2022-09-28T04:27:13.435Z,98238.25
2022-09-28T04:32:14.479Z,98234.30
2022-09-28T04:37:15.605Z,98230.63
2022-09-28T04:42:16.686Z,98229.37
2022-09-28T04:47:17.814Z,98231.77
2022-09-28T04:52:18.920Z,98226.79
2022-09-28T04:57:20.456Z,98228.30
2022-09-28T05:02:21.881Z,98224.77
2022-09-28T05:07:23.079Z,98221.99
2022-09-28T05:12:24.519Z,98219.09
2022-09-28T05:17:25.679Z,98219.80
2022-09-28T05:22:26.654Z,98219.10
2022-09-28T05:27:27.711Z,98215.55
2022-09-28T05:32:29.203Z,98209.13
2022-09-28T05:37:30.603Z,98204.02
2022-09-28T05:42:31.655Z,98207.56
2022-09-28T05:47:36.791Z,98216.55
2022-09-28T05:52:38.222Z,98218.05
2022-09-28T05:57:40.291Z,98214.58
2022-09-28T06:02:41.345Z,98211.98
2022-09-28T06:07:42.712Z,98213.04
2022-09-28T06:12:44.795Z,98209.88
2022-09-28T06:17:46.063Z,98210.27
2022-09-28T06:22:51.100Z,98200.76
2022-09-28T06:27:57.462Z,98200.30
2022-09-28T06:33:00.890Z,98201.45
2022-09-28T06:38:02.371Z,98199.67
2022-09-28T06:43:09.513Z,98204.00
2022-09-28T06:48:10.882Z,98200.73
2022-09-28T06:53:13.575Z,98204.17
2022-09-28T06:58:17.071Z,98197.81
2022-09-28T07:03:20.886Z,98196.85
2022-09-28T07:08:28.067Z,98196.23
2022-09-28T07:13:48.779Z,98199.03
2022-09-28T07:18:50.575Z,98197.87
2022-09-28T07:23:54.194Z,98199.06
2022-09-28T07:28:55.639Z,98200.56
2022-09-28T07:33:58.044Z,98203.08
2022-09-28T07:38:59.112Z,98202.51
2022-09-28T07:44:05.292Z,98211.09
2022-09-28T07:49:09.787Z,98220.70
2022-09-28T07:54:13.483Z,98217.64
2022-09-28T07:59:17.463Z,98220.43
2022-09-28T08:04:19.747Z,98224.15
2022-09-28T08:09:20.816Z,98228.02
2022-09-28T08:14:22.362Z,98231.54
2022-09-28T08:19:24.203Z,98232.70
2022-09-28T08:24:30.174Z,98231.48
2022-09-28T08:29:31.264Z,98230.13
2022-09-28T08:34:33.450Z,98223.10
2022-09-28T08:39:35.291Z,98225.34
2022-09-28T08:44:47.303Z,98227.44
2022-09-28T08:49:49.522Z,98228.29
2022-09-28T08:54:53.747Z,98230.95
2022-09-28T08:59:57.679Z,98234.58
2022-09-28T09:05:01.979Z,98236.95
2022-09-28T09:10:35.532Z,98234.18
2022-09-28T09:16:01.863Z,98236.98
2022-09-28T09:21:15.157Z,98249.48
2022-09-28T09:26:26.441Z,98258.69
2022-09-28T09:32:04.646Z,98265.95
2022-09-28T09:37:24.448Z,98273.56
2022-09-28T09:42:44.165Z,98273.33
2022-09-28T09:47:53.009Z,98277.95
2022-09-28T09:53:04.136Z,98274.60
2022-09-28T09:58:25.816Z,98274.98
2022-09-28T10:03:31.900Z,98281.05
2022-09-28T10:08:57.693Z,98284.36
2022-09-28T10:13:58.964Z,98286.43
2022-09-28T10:19:00.414Z,98291.09
2022-09-28T10:24:01.990Z,98288.41
2022-09-28T10:29:10.811Z,98292.49
2022-09-28T10:34:14.344Z,98293.71
2022-09-28T10:39:28.384Z,98297.09
2022-09-28T10:44:33.126Z,98300.91
2022-09-28T10:49:46.608Z,98304.30
2022-09-28T10:54:52.896Z,98298.41
2022-09-28T10:59:54.090Z,98299.23
2022-09-28T11:05:00.622Z,98300.85
2022-09-28T11:10:03.370Z,98304.94
2022-09-28T11:15:06.694Z,98318.57
2022-09-28T11:20:28.208Z,98326.35
2022-09-28T11:25:30.608Z,98326.49
2022-09-28T11:30:41.648Z,98333.25
2022-09-28T11:35:59.462Z,98328.79
2022-09-28T11:41:22.426Z,98327.33
2022-09-28T11:46:32.952Z,98326.83
2022-09-28T11:51:36.872Z,98323.98
2022-09-28T11:56:41.850Z,98319.68
2022-09-28T12:02:12.969Z,98318.60
2022-09-28T12:07:38.955Z,98317.77
2022-09-28T12:12:56.922Z,98312.36
2022-09-28T12:18:05.348Z,98319.57
2022-09-28T12:23:14.541Z,98326.89
2022-09-28T12:28:41.334Z,98320.41
2022-09-28T12:33:47.163Z,98328.46
2022-09-28T12:39:23.951Z,98335.42
2022-09-28T12:44:41.085Z,98335.48
2022-09-28T12:50:37.435Z,98333.11
2022-09-28T12:55:35.614Z,98331.69
2022-09-28T13:00:58.807Z,98332.39
2022-09-28T13:06:25.000Z,98330.50
2022-09-28T13:11:40.936Z,98334.14
2022-09-28T13:17:19.513Z,98343.32
2022-09-28T13:22:35.309Z,98340.83
2022-09-28T13:27:45.702Z,98343.66
2022-09-28T13:32:49.148Z,98344.17
2022-09-28T13:38:16.776Z,98347.63
2022-09-28T13:43:30.994Z,98348.16
2022-09-28T13:48:58.459Z,98351.16
2022-09-28T13:54:16.587Z,98350.92
2022-09-28T13:59:28.215Z,98353.69
2022-09-28T14:04:54.280Z,98354.95
2022-09-28T14:10:20.339Z,98354.70
2022-09-28T14:15:42.033Z,98347.36
2022-09-28T14:20:59.358Z,98355.95
2022-09-28T14:26:40.897Z,98358.64
2022-09-28T14:31:43.026Z,98366.70
2022-09-28T14:37:07.526Z,98367.84
2022-09-28T14:42:16.622Z,98371.68
2022-09-28T14:47:32.762Z,98377.41
2022-09-28T14:53:12.793Z,98370.93
2022-09-28T14:58:19.390Z,98375.66
2022-09-28T15:03:22.341Z,98381.54
2022-09-28T15:08:35.322Z,98387.38
2022-09-28T15:13:40.191Z,98390.61
2022-09-28T15:19:23.955Z,98393.23
2022-09-28T15:24:32.858Z,98392.23
2022-09-28T15:29:35.250Z,98395.98
2022-09-28T15:34:55.414Z,98390.09
2022-09-28T15:39:59.206Z,98387.71
2022-09-28T15:45:22.195Z,98382.23
2022-09-28T15:50:32.287Z,98385.49
2022-09-28T15:55:38.728Z,98399.14
2022-09-28T16:00:40.901Z,98395.52
2022-09-28T16:05:59.924Z,98399.52
2022-09-28T16:11:20.056Z,98398.52
2022-09-28T16:16:30.368Z,98400.39
2022-09-28T16:21:41.809Z,98408.98
2022-09-28T16:26:43.316Z,98404.30
2022-09-28T16:31:52.093Z,98399.73
2022-09-28T16:36:54.742Z,98399.73
2022-09-28T16:42:02.594Z,98403.77
2022-09-28T16:47:06.862Z,98405.65
2022-09-28T16:52:11.768Z,98405.00
2022-09-28T16:57:14.431Z,98403.85
2022-09-28T17:02:42.209Z,98402.52
2022-09-28T17:07:39.882Z,98402.34
2022-09-28T17:12:41.259Z,98398.99
2022-09-28T17:17:42.366Z,98397.63
2022-09-28T17:22:43.353Z,98394.69
2022-09-28T17:27:46.940Z,98396.78
2022-09-28T17:32:48.841Z,98400.72
2022-09-28T17:37:49.928Z,98400.30
2022-09-28T17:42:54.321Z,98395.01
2022-09-28T17:47:55.608Z,98384.33
2022-09-28T17:52:59.041Z,98381.77
2022-09-28T17:58:01.515Z,98380.65
2022-09-28T18:03:02.751Z,98387.64
2022-09-28T18:08:06.015Z,98394.10
2022-09-28T18:13:07.346Z,98396.06
2022-09-28T18:18:09.673Z,98398.64
2022-09-28T18:23:11.070Z,98395.89
2022-09-28T18:28:12.968Z,98393.29
2022-09-28T18:33:15.224Z,98397.88
2022-09-28T18:38:16.701Z,98396.12
2022-09-28T18:43:17.832Z,98397.15
2022-09-28T18:48:18.916Z,98394.05
2022-09-28T18:53:20.142Z,98392.94
2022-09-28T18:58:21.318Z,98394.65
2022-09-28T19:03:22.603Z,98394.30
2022-09-28T19:08:27.572Z,98395.67
2022-09-28T19:13:29.031Z,98396.50
2022-09-28T19:18:30.573Z,98393.44
2022-09-28T19:23:32.450Z,98382.81
2022-09-28T19:28:34.133Z,98385.64
2022-09-28T19:33:36.389Z,98386.91
2022-09-28T19:38:38.620Z,98397.41
2022-09-28T19:43:43.395Z,98407.90
2022-09-28T19:48:44.584Z,98413.98
2022-09-28T19:53:45.597Z,98415.14
2022-09-28T19:58:46.777Z,98419.27
2022-09-28T20:03:47.902Z,98420.05
2022-09-28T20:08:49.599Z,98427.73
2022-09-28T20:13:54.657Z,98432.60
2022-09-28T20:18:59.858Z,98440.89
2022-09-28T20:24:01.312Z,98446.27
2022-09-28T20:29:06.850Z,98446.89
2022-09-28T20:34:09.031Z,98454.57
2022-09-28T20:39:10.986Z,98455.63
2022-09-28T20:44:12.122Z,98456.79
2022-09-28T20:49:13.193Z,98462.11
2022-09-28T20:54:14.459Z,98460.39
2022-09-28T20:59:15.835Z,98454.99
2022-09-28T21:04:16.985Z,98447.05
2022-09-28T21:09:18.255Z,98448.10
2022-09-28T21:14:20.497Z,98449.80
2022-09-28T21:19:23.499Z,98446.67
2022-09-28T21:24:24.772Z,98451.96
2022-09-28T21:29:26.084Z,98453.09
2022-09-28T21:34:27.174Z,98451.08
2022-09-28T21:39:28.177Z,98455.84
2022-09-28T21:44:29.413Z,98449.55
2022-09-28T21:49:30.849Z,98445.67
2022-09-28T21:54:33.743Z,98441.21
2022-09-28T21:59:34.958Z,98438.09
2022-09-28T22:04:36.019Z,98441.38
2022-09-28T22:09:37.205Z,98444.38
2022-09-28T22:14:38.218Z,98444.70
2022-09-28T22:19:40.913Z,98441.70
2022-09-28T22:24:42.103Z,98444.88
2022-09-28T22:29:43.825Z,98444.41
2022-09-28T22:34:44.959Z,98445.22
2022-09-28T22:39:46.650Z,98447.95
2022-09-28T22:44:48.182Z,98446.41
2022-09-28T22:49:49.342Z,98444.58
2022-09-28T22:54:50.512Z,98447.56
2022-09-28T22:59:51.730Z,98445.90
2022-09-28T23:04:52.871Z,98449.40
2022-09-28T23:09:57.026Z,98445.63
2022-09-28T23:14:58.256Z,98440.35
2022-09-28T23:19:59.331Z,98439.80
2022-09-28T23:25:00.448Z,98440.86
2022-09-28T23:30:01.589Z,98439.72
2022-09-28T23:35:03.131Z,98441.76
2022-09-28T23:40:06.147Z,98451.27
2022-09-28T23:45:07.945Z,98444.98
2022-09-28T23:50:09.148Z,98447.38
2022-09-28T23:55:10.401Z,98452.52
